Terminal Aerodrome Forecast
Issued by NWS Dodge City, KS

Home | Current Version | Previous Version | Text Only | Print | Product List | Glossary On
Versions: 1 2 3 4 5 6 7 8 9 10 11 12 13 14 15 16 17 18 19 20 21 22 23 24 25 26 27 28
000
FTUS43 KDDC 231712 AAB
TAFDDC
TAF AMD
KDDC 231712Z 2317/2412 17025G31KT 6SM HZ BKN045
     FM240100 17022G35KT P6SM VCTS OVC050CB
     FM240700 18027G30KT P6SM BKN050
     FM241000 19017KT P6SM SCT250=

USA.gov is the U.S. government's official web portal to all federal, state and local government web resources and services.